createdAt,value
2019-06-15T00:00:48.107Z,5.63
2019-06-15T00:02:52.949Z,7.10
2019-06-15T00:04:57.714Z,8.10
2019-06-15T00:07:02.697Z,5.80
2019-06-15T00:09:08.183Z,9.95
2019-06-15T00:11:13.015Z,6.07
2019-06-15T00:13:17.940Z,6.10
2019-06-15T00:15:23.055Z,6.97
2019-06-15T00:17:27.829Z,6.30
2019-06-15T00:19:32.577Z,5.80
2019-06-15T00:21:37.375Z,6.00
2019-06-15T00:23:42.077Z,6.03
2019-06-15T00:25:46.883Z,9.33
2019-06-15T00:27:51.880Z,8.10
2019-06-15T00:29:56.888Z,12.70
2019-06-15T00:32:01.580Z,9.50
2019-06-15T00:34:06.418Z,6.97
2019-06-15T00:36:11.239Z,8.40
2019-06-15T00:38:16.518Z,6.47
2019-06-15T00:40:21.379Z,7.23
2019-06-15T00:42:26.218Z,7.60
2019-06-15T00:44:30.986Z,8.10
2019-06-15T00:46:36.062Z,8.70
2019-06-15T00:48:40.836Z,8.80
2019-06-15T00:50:45.650Z,7.50
2019-06-15T00:52:50.823Z,7.60
2019-06-15T00:54:55.602Z,7.03
2019-06-15T00:57:00.716Z,7.40
2019-06-15T00:59:05.736Z,6.90
2019-06-15T01:01:10.983Z,8.87
2019-06-15T01:03:15.674Z,7.10
2019-06-15T01:05:20.831Z,11.00
2019-06-15T01:07:25.959Z,9.77
2019-06-15T01:09:30.978Z,8.50
2019-06-15T01:11:35.878Z,7.90
2019-06-15T01:13:40.606Z,10.60
2019-06-15T01:15:45.744Z,9.30
2019-06-15T01:17:50.501Z,10.48
2019-06-15T01:19:55.946Z,9.00
2019-06-15T01:22:01.086Z,8.30
2019-06-15T01:24:06.021Z,11.70
2019-06-15T01:26:10.799Z,11.30
2019-06-15T01:28:15.525Z,8.98
2019-06-15T01:30:20.481Z,10.67
2019-06-15T01:32:25.250Z,10.63
2019-06-15T01:34:29.992Z,11.23
2019-06-15T01:36:34.775Z,8.70
2019-06-15T01:38:39.470Z,9.30
2019-06-15T01:40:44.491Z,8.70
2019-06-15T01:42:49.272Z,9.13
2019-06-15T01:44:54.098Z,9.75
2019-06-15T01:46:59.231Z,9.27
2019-06-15T01:49:04.338Z,9.20
2019-06-15T01:51:09.370Z,9.13
2019-06-15T01:53:14.525Z,8.37
2019-06-15T01:55:21.174Z,9.70
2019-06-15T01:57:25.579Z,10.53
2019-06-15T01:59:31.132Z,9.73
2019-06-15T02:01:35.949Z,9.23
2019-06-15T02:03:40.680Z,9.73
2019-06-15T02:05:45.420Z,10.00
2019-06-15T02:07:50.119Z,15.20
2019-06-15T02:09:54.872Z,9.97
2019-06-15T02:11:59.668Z,11.23
2019-06-15T02:14:04.756Z,9.10
2019-06-15T02:16:09.534Z,10.30
2019-06-15T02:18:14.282Z,11.33
2019-06-15T02:20:19.153Z,12.90
2019-06-15T02:22:23.928Z,13.03
2019-06-15T02:24:28.953Z,10.47
2019-06-15T02:26:34.036Z,11.97
2019-06-15T02:28:38.726Z,10.50
2019-06-15T02:30:43.464Z,8.93
2019-06-15T02:32:48.421Z,12.93
2019-06-15T02:34:53.217Z,13.60
2019-06-15T02:36:58.006Z,10.45
2019-06-15T02:39:02.718Z,14.80
2019-06-15T02:41:07.747Z,11.43
2019-06-15T02:43:12.566Z,11.90
2019-06-15T02:45:17.450Z,12.87
2019-06-15T02:47:22.270Z,11.70
2019-06-15T02:49:27.008Z,12.90
2019-06-15T02:51:31.907Z,15.00
2019-06-15T02:53:36.652Z,11.40
2019-06-15T02:55:50.176Z,11.10
2019-06-15T02:57:48.076Z,13.33
2019-06-15T02:59:52.823Z,10.70
2019-06-15T03:01:58.154Z,12.90
2019-06-15T03:04:02.864Z,14.50
2019-06-15T03:06:08.148Z,13.30
2019-06-15T03:08:13.229Z,15.00
2019-06-15T03:10:18.043Z,14.50
2019-06-15T03:12:22.974Z,15.73
2019-06-15T03:14:28.075Z,13.30
2019-06-15T03:16:32.813Z,15.60
2019-06-15T03:18:38.040Z,13.87
2019-06-15T03:20:43.170Z,13.60
2019-06-15T03:22:48.306Z,13.50
2019-06-15T03:24:53.429Z,12.80
2019-06-15T03:26:58.664Z,13.77
2019-06-15T03:29:03.419Z,12.17
2019-06-15T03:31:08.219Z,16.73
2019-06-15T03:33:12.907Z,16.63
2019-06-15T03:35:19.093Z,11.87
2019-06-15T03:37:24.996Z,15.37
2019-06-15T03:39:29.756Z,16.30
2019-06-15T03:41:34.511Z,20.43
2019-06-15T03:43:39.630Z,14.97
2019-06-15T03:45:44.351Z,13.50
2019-06-15T03:47:49.070Z,15.73
2019-06-15T03:49:53.792Z,13.97
2019-06-15T03:51:58.533Z,18.73
2019-06-15T03:54:03.244Z,16.90
2019-06-15T03:56:20.555Z,16.65
2019-06-15T03:58:15.025Z,16.63
2019-06-15T04:00:56.607Z,19.90
2019-06-15T04:03:01.356Z,15.83
2019-06-15T04:05:06.145Z,15.83
2019-06-15T04:07:10.834Z,16.50
2019-06-15T04:09:15.640Z,15.63
2019-06-15T04:11:20.669Z,16.53
2019-06-15T04:13:25.821Z,17.23
2019-06-15T04:15:31.008Z,19.10
2019-06-15T04:17:35.815Z,18.57
2019-06-15T04:19:40.685Z,16.20
2019-06-15T04:21:45.446Z,16.97
2019-06-15T04:23:50.235Z,17.97
2019-06-15T04:25:55.421Z,17.83
2019-06-15T04:28:00.184Z,16.90
2019-06-15T04:30:05.570Z,20.50
2019-06-15T04:32:10.527Z,17.60
2019-06-15T04:34:15.330Z,19.20
2019-06-15T04:36:20.554Z,20.97
2019-06-15T04:38:26.004Z,17.63
2019-06-15T04:40:30.817Z,21.73
2019-06-15T04:42:36.007Z,23.27
2019-06-15T04:44:41.036Z,21.20
2019-06-15T04:46:45.833Z,25.13
2019-06-15T04:48:50.966Z,21.55
2019-06-15T04:50:55.999Z,21.30
2019-06-15T04:53:00.808Z,19.93
2019-06-15T04:55:06.597Z,21.30
2019-06-15T04:57:13.026Z,21.20
2019-06-15T04:59:17.892Z,18.23
2019-06-15T05:01:23.502Z,20.00
2019-06-15T05:03:28.221Z,19.63
2019-06-15T05:05:33.122Z,21.00
2019-06-15T05:07:37.904Z,19.10
2019-06-15T05:09:42.679Z,24.27
2019-06-15T05:11:47.403Z,21.87
2019-06-15T05:13:52.122Z,21.30
2019-06-15T05:15:57.000Z,22.80
2019-06-15T05:18:02.343Z,20.57
2019-06-15T05:20:08.184Z,22.50
2019-06-15T05:22:12.938Z,20.70
2019-06-15T05:24:17.901Z,20.60
2019-06-15T05:26:23.248Z,22.73
2019-06-15T05:28:28.330Z,24.87
2019-06-15T05:30:33.151Z,22.60
2019-06-15T05:32:38.406Z,24.13
2019-06-15T05:34:43.118Z,19.83
2019-06-15T05:36:47.834Z,22.20
2019-06-15T05:38:53.155Z,20.63
2019-06-15T05:40:58.312Z,24.50
2019-06-15T05:43:03.627Z,21.30
2019-06-15T05:45:09.217Z,21.80
2019-06-15T05:47:13.991Z,20.17
2019-06-15T05:49:18.692Z,21.83
2019-06-15T05:51:23.544Z,19.97
2019-06-15T05:53:28.264Z,16.60
2019-06-15T05:55:33.498Z,19.60
2019-06-15T05:57:38.228Z,18.40
2019-06-15T05:59:43.442Z,18.53
2019-06-15T06:01:48.257Z,17.80
2019-06-15T06:03:53.310Z,21.30
2019-06-15T06:05:58.069Z,20.83
2019-06-15T06:08:02.830Z,18.67
2019-06-15T06:10:10.803Z,17.43
2019-06-15T06:12:14.955Z,19.77
2019-06-15T06:14:19.813Z,19.23
2019-06-15T06:16:24.874Z,19.50
2019-06-15T06:18:29.868Z,18.90
2019-06-15T06:20:34.621Z,24.10
2019-06-15T06:22:39.336Z,21.03
2019-06-15T06:24:47.071Z,17.30
2019-06-15T06:26:51.825Z,39.03
2019-06-15T06:28:57.646Z,18.30
2019-06-15T06:31:02.498Z,17.80
2019-06-15T06:33:07.642Z,15.28
2019-06-15T06:35:12.520Z,19.60
2019-06-15T06:37:17.230Z,15.13
2019-06-15T06:39:22.572Z,21.43
2019-06-15T06:41:27.967Z,17.20
2019-06-15T06:43:32.728Z,14.45
2019-06-15T06:45:37.982Z,17.10
2019-06-15T06:47:43.912Z,18.63
2019-06-15T06:49:49.127Z,15.40
2019-06-15T06:51:54.098Z,13.37
2019-06-15T06:53:58.875Z,14.10
2019-06-15T06:56:03.636Z,17.57
2019-06-15T06:58:08.818Z,12.37
2019-06-15T07:00:14.996Z,14.23
2019-06-15T07:02:19.815Z,13.30
2019-06-15T07:04:24.687Z,15.10
2019-06-15T07:06:29.550Z,16.20
2019-06-15T07:08:34.311Z,13.60
2019-06-15T07:10:39.118Z,15.97
2019-06-15T07:12:43.931Z,15.03
2019-06-15T07:14:48.856Z,13.73
2019-06-15T07:16:53.863Z,17.07
2019-06-15T07:18:58.628Z,16.00
2019-06-15T07:21:03.448Z,14.83
2019-06-15T07:23:08.365Z,22.13
2019-06-15T07:25:13.564Z,12.20
2019-06-15T07:27:18.406Z,9.50
2019-06-15T07:29:23.484Z,13.00
2019-06-15T07:31:28.765Z,14.67
2019-06-15T07:33:33.887Z,6.70
2019-06-15T07:35:39.726Z,11.78
2019-06-15T07:37:44.910Z,9.90
2019-06-15T07:39:49.945Z,7.87
2019-06-15T07:41:54.763Z,16.63
2019-06-15T07:44:00.019Z,12.33
2019-06-15T07:46:04.862Z,15.83
2019-06-15T07:48:09.678Z,20.13
2019-06-15T07:50:14.616Z,9.93
2019-06-15T07:52:19.415Z,19.13
2019-06-15T07:54:24.570Z,10.67
2019-06-15T07:56:29.283Z,15.30
2019-06-15T07:58:34.042Z,13.50
2019-06-15T08:00:39.428Z,9.60
2019-06-15T08:02:44.503Z,10.43
2019-06-15T08:04:49.347Z,8.63
2019-06-15T08:06:54.130Z,9.47
2019-06-15T08:08:59.185Z,8.33
2019-06-15T08:11:03.951Z,6.37
2019-06-15T08:13:09.133Z,10.00
2019-06-15T08:15:13.979Z,9.63
2019-06-15T08:17:18.763Z,7.80
2019-06-15T08:19:23.627Z,5.53
2019-06-15T08:21:29.443Z,10.00
2019-06-15T08:23:34.203Z,6.43
2019-06-15T08:25:39.606Z,10.10
2019-06-15T08:27:44.409Z,6.62
2019-06-15T08:29:49.248Z,5.20
2019-06-15T08:31:54.513Z,5.77
2019-06-15T08:33:59.380Z,7.10
2019-06-15T08:36:04.238Z,13.33
2019-06-15T08:38:09.163Z,12.77
2019-06-15T08:40:14.618Z,11.40
2019-06-15T08:42:19.421Z,14.05
2019-06-15T08:44:24.170Z,13.93
2019-06-15T08:46:28.949Z,14.50
2019-06-15T08:48:33.777Z,12.93
2019-06-15T08:50:38.766Z,14.27
2019-06-15T08:52:43.563Z,13.93
2019-06-15T08:54:48.334Z,13.97
2019-06-15T08:56:53.129Z,16.70
2019-06-15T08:59:00.795Z,16.93
2019-06-15T09:01:05.106Z,17.40
2019-06-15T09:03:10.019Z,15.63
2019-06-15T09:05:14.909Z,20.50
2019-06-15T09:07:19.695Z,17.50
2019-06-15T09:09:24.436Z,19.32
2019-06-15T09:11:29.251Z,16.90
2019-06-15T09:13:34.303Z,15.90
2019-06-15T09:15:53.102Z,13.50
2019-06-15T09:17:58.703Z,13.53
2019-06-15T09:20:03.504Z,12.77
2019-06-15T09:22:08.291Z,10.43
2019-06-15T09:24:13.033Z,10.10
2019-06-15T09:26:17.807Z,9.10
2019-06-15T09:28:22.762Z,10.60
2019-06-15T09:30:27.502Z,7.67
2019-06-15T09:32:32.280Z,7.87
2019-06-15T09:34:37.092Z,7.78
2019-06-15T09:36:42.346Z,5.70
2019-06-15T09:38:47.115Z,4.90
2019-06-15T09:40:52.007Z,5.40
2019-06-15T09:42:56.808Z,4.53
2019-06-15T09:45:02.248Z,4.70
2019-06-15T09:47:07.354Z,4.37
2019-06-15T09:49:12.185Z,4.40
2019-06-15T09:51:17.023Z,4.10
2019-06-15T09:53:22.089Z,3.37
2019-06-15T09:55:27.049Z,3.03
2019-06-15T09:57:32.384Z,3.30
2019-06-15T09:59:38.498Z,4.03
2019-06-15T10:01:43.539Z,4.93
2019-06-15T10:03:48.328Z,3.57
2019-06-15T10:05:53.237Z,3.13
2019-06-15T10:07:58.678Z,3.03
2019-06-15T10:10:03.780Z,2.47
2019-06-15T10:12:08.584Z,2.47
2019-06-15T10:14:13.379Z,2.40
2019-06-15T10:16:18.909Z,2.23
2019-06-15T10:18:24.242Z,3.60
2019-06-15T10:20:29.383Z,2.47
2019-06-15T10:22:34.125Z,5.20
2019-06-15T10:24:38.956Z,4.73
2019-06-15T10:26:43.809Z,2.60
2019-06-15T10:28:48.645Z,2.67
2019-06-15T10:30:53.426Z,4.50
2019-06-15T10:32:58.382Z,4.30
2019-06-15T10:35:03.747Z,2.47
2019-06-15T10:37:08.571Z,8.30
2019-06-15T10:39:13.376Z,3.00
2019-06-15T10:41:18.608Z,3.40
2019-06-15T10:43:23.596Z,3.53
2019-06-15T10:45:28.424Z,3.43
2019-06-15T10:47:33.234Z,3.47
2019-06-15T10:49:38.097Z,3.00
2019-06-15T10:51:42.957Z,3.10
2019-06-15T10:53:47.847Z,3.22
2019-06-15T10:55:52.923Z,3.20
2019-06-15T10:57:58.517Z,2.70
2019-06-15T11:00:03.342Z,2.50
2019-06-15T11:02:08.227Z,2.50
2019-06-15T11:04:13.057Z,2.63
2019-06-15T11:06:18.173Z,2.60
2019-06-15T11:08:22.973Z,6.93
2019-06-15T11:10:55.907Z,2.57
2019-06-15T11:13:00.714Z,3.67
2019-06-15T11:15:06.503Z,4.13
2019-06-15T11:17:12.527Z,5.90
2019-06-15T11:19:19.191Z,2.73
2019-06-15T11:21:23.971Z,3.08
2019-06-15T11:23:30.119Z,3.00
2019-06-15T11:25:34.957Z,4.13
2019-06-15T11:27:39.739Z,2.80
2019-06-15T11:29:44.484Z,7.80
2019-06-15T11:31:49.340Z,2.60
2019-06-15T11:33:54.605Z,2.90
2019-06-15T11:35:59.376Z,3.70
2019-06-15T11:38:04.207Z,3.17
2019-06-15T11:40:09.978Z,3.63
2019-06-15T11:42:14.690Z,2.83
2019-06-15T11:44:19.832Z,2.30
2019-06-15T11:46:24.545Z,4.50
2019-06-15T11:48:29.311Z,2.70
2019-06-15T11:50:34.635Z,2.98
2019-06-15T11:52:39.729Z,2.87
2019-06-15T11:54:44.509Z,3.03
2019-06-15T11:56:49.302Z,4.43
2019-06-15T11:58:54.450Z,2.67
2019-06-15T12:00:59.616Z,4.33
2019-06-15T12:03:04.576Z,4.70
2019-06-15T12:05:09.531Z,2.60
2019-06-15T12:07:14.369Z,2.43
2019-06-15T12:09:19.417Z,2.40
2019-06-15T12:11:24.271Z,3.20
2019-06-15T12:13:29.068Z,3.20
2019-06-15T12:15:34.245Z,3.00
2019-06-15T12:17:39.201Z,2.67
2019-06-15T12:19:44.108Z,2.70
2019-06-15T12:21:49.077Z,2.93
2019-06-15T12:23:54.532Z,2.90
2019-06-15T12:25:59.377Z,3.10
2019-06-15T12:28:05.180Z,3.43
2019-06-15T12:30:10.951Z,3.27
2019-06-15T12:32:15.799Z,8.20
2019-06-15T12:34:21.232Z,3.57
2019-06-15T12:36:26.032Z,3.65
2019-06-15T12:38:31.411Z,3.80
2019-06-15T12:40:36.830Z,4.73
2019-06-15T12:42:41.574Z,3.17
2019-06-15T12:44:46.586Z,3.40
2019-06-15T12:46:51.988Z,3.60
2019-06-15T12:48:56.759Z,3.20
2019-06-15T12:51:01.595Z,3.80
2019-06-15T12:53:09.154Z,3.40
2019-06-15T12:55:14.002Z,3.30
2019-06-15T12:57:18.998Z,3.70
2019-06-15T12:59:24.403Z,2.73
2019-06-15T13:01:29.219Z,3.63
2019-06-15T13:03:34.002Z,2.90
2019-06-15T13:05:38.977Z,2.97
2019-06-15T13:07:44.218Z,3.17
2019-06-15T13:09:49.447Z,3.13
2019-06-15T13:11:54.307Z,3.10
2019-06-15T13:13:59.127Z,2.50
2019-06-15T13:16:04.221Z,4.50
2019-06-15T13:18:09.021Z,3.30
2019-06-15T13:20:14.018Z,2.73
2019-06-15T13:22:18.792Z,2.62
2019-06-15T13:24:23.597Z,2.63
2019-06-15T13:26:28.474Z,2.97
2019-06-15T13:28:33.704Z,3.20
2019-06-15T13:30:38.559Z,4.70
2019-06-15T13:32:43.796Z,2.63
2019-06-15T13:34:48.600Z,2.60
2019-06-15T13:36:53.398Z,4.33
2019-06-15T13:38:58.291Z,2.80
2019-06-15T13:41:04.298Z,3.20
2019-06-15T13:43:09.061Z,2.77
2019-06-15T13:45:14.178Z,2.60
2019-06-15T13:47:19.077Z,2.93
2019-06-15T13:49:24.499Z,4.50
2019-06-15T13:51:30.033Z,3.73
2019-06-15T13:53:34.874Z,3.37
2019-06-15T13:55:39.906Z,3.67
2019-06-15T13:57:44.928Z,3.13
2019-06-15T13:59:49.755Z,2.70
2019-06-15T14:01:54.661Z,2.63
2019-06-15T14:03:59.537Z,3.10
2019-06-15T14:06:04.389Z,8.30
2019-06-15T14:08:09.199Z,4.67
2019-06-15T14:10:14.165Z,4.97
2019-06-15T14:12:19.260Z,4.43
2019-06-15T14:14:24.063Z,4.03
2019-06-15T14:16:28.914Z,3.70
2019-06-15T14:18:34.119Z,3.10
2019-06-15T14:20:38.987Z,3.90
2019-06-15T14:22:43.768Z,3.50
2019-06-15T14:24:48.625Z,4.37
2019-06-15T14:26:53.412Z,8.40
2019-06-15T14:28:58.571Z,4.00
2019-06-15T14:31:03.433Z,7.53
2019-06-15T14:33:08.320Z,6.93
2019-06-15T14:35:13.412Z,4.13
2019-06-15T14:37:18.242Z,5.07
2019-06-15T14:39:23.065Z,6.80
2019-06-15T14:41:27.956Z,5.83
2019-06-15T14:43:36.174Z,4.90
2019-06-15T14:45:41.451Z,4.83
2019-06-15T14:47:46.298Z,10.43
2019-06-15T14:49:51.173Z,5.00
2019-06-15T14:51:56.059Z,6.90
2019-06-15T14:54:00.919Z,13.30
2019-06-15T14:56:06.783Z,5.87
2019-06-15T14:58:12.235Z,4.50
2019-06-15T15:00:17.953Z,5.70
2019-06-15T15:02:22.705Z,5.10
2019-06-15T15:04:27.559Z,5.10
2019-06-15T15:06:32.778Z,5.40
2019-06-15T15:08:37.972Z,4.57
2019-06-15T15:10:44.512Z,7.13
2019-06-15T15:12:50.771Z,5.37
2019-06-15T15:14:56.681Z,4.47
2019-06-15T15:17:01.567Z,5.13
2019-06-15T15:19:06.497Z,6.27
2019-06-15T15:21:11.351Z,4.00
2019-06-15T15:23:16.540Z,8.07
2019-06-15T15:25:21.600Z,5.93
2019-06-15T15:27:27.354Z,3.80
2019-06-15T15:29:32.450Z,4.13
2019-06-15T15:31:37.287Z,3.77
2019-06-15T15:33:42.419Z,4.27
2019-06-15T15:35:47.240Z,4.10
2019-06-15T15:37:52.085Z,7.40
2019-06-15T15:39:56.855Z,5.30
2019-06-15T15:42:01.666Z,5.73
2019-06-15T15:44:06.512Z,5.30
2019-06-15T15:46:11.385Z,3.20
2019-06-15T15:48:18.615Z,4.23
2019-06-15T15:50:26.072Z,4.80
2019-06-15T15:52:30.133Z,3.63
2019-06-15T15:54:36.119Z,3.53
2019-06-15T15:56:41.244Z,3.63
2019-06-15T15:58:47.142Z,4.70
2019-06-15T16:00:52.744Z,4.40
2019-06-15T16:02:57.497Z,3.43
2019-06-15T16:05:02.282Z,6.73
2019-06-15T16:07:07.487Z,4.23
2019-06-15T16:09:12.232Z,3.63
2019-06-15T16:11:17.124Z,3.70
2019-06-15T16:13:21.921Z,6.90
2019-06-15T16:15:26.705Z,4.30
2019-06-15T16:17:31.549Z,4.70
2019-06-15T16:19:36.592Z,2.63
2019-06-15T16:21:41.472Z,5.60
2019-06-15T16:23:47.201Z,2.90
2019-06-15T16:25:52.072Z,3.10
2019-06-15T16:27:56.949Z,2.80
2019-06-15T16:30:01.782Z,2.57
2019-06-15T16:32:07.206Z,3.63
2019-06-15T16:34:12.052Z,3.52
2019-06-15T16:36:16.975Z,3.27
2019-06-15T16:38:21.794Z,3.17
2019-06-15T16:40:38.187Z,5.20
2019-06-15T16:42:43.181Z,3.83
2019-06-15T16:44:48.015Z,3.67
2019-06-15T16:46:52.800Z,2.40
2019-06-15T16:48:57.552Z,9.73
2019-06-15T16:51:02.377Z,6.03
2019-06-15T16:53:07.515Z,2.53
2019-06-15T16:55:12.438Z,2.57
2019-06-15T16:57:17.633Z,4.47
2019-06-15T16:59:22.479Z,4.93
2019-06-15T17:01:27.652Z,9.30
2019-06-15T17:03:32.477Z,7.03
2019-06-15T17:05:37.369Z,13.63
2019-06-15T17:07:42.181Z,9.90
2019-06-15T17:09:46.969Z,13.80
2019-06-15T17:11:51.816Z,7.70
2019-06-15T17:13:56.620Z,5.40
2019-06-15T17:16:01.459Z,3.53
2019-06-15T17:18:06.442Z,3.93
2019-06-15T17:20:11.297Z,4.50
2019-06-15T17:22:20.767Z,3.17
2019-06-15T17:24:22.635Z,4.33
2019-06-15T17:26:27.385Z,6.83
2019-06-15T17:28:32.194Z,4.10
2019-06-15T17:30:37.390Z,4.80
2019-06-15T17:32:42.149Z,5.30
2019-06-15T17:34:47.380Z,3.57
2019-06-15T17:36:52.462Z,3.90
2019-06-15T17:38:57.233Z,4.03
2019-06-15T17:41:02.009Z,5.22
2019-06-15T17:43:06.751Z,3.07
2019-06-15T17:45:11.946Z,3.30
2019-06-15T17:47:17.050Z,5.27
2019-06-15T17:49:21.859Z,3.57
2019-06-15T17:51:27.041Z,4.63
2019-06-15T17:53:33.766Z,3.33
2019-06-15T17:55:39.225Z,5.80
2019-06-15T17:57:46.375Z,7.42
2019-06-15T17:59:50.574Z,2.80
2019-06-15T18:01:55.687Z,3.13
2019-06-15T18:04:00.582Z,3.83
2019-06-15T18:06:05.469Z,3.93
2019-06-15T18:08:10.613Z,4.10
2019-06-15T18:10:15.997Z,3.17
2019-06-15T18:12:20.825Z,4.53
2019-06-15T18:14:26.409Z,3.40
2019-06-15T18:16:36.827Z,3.97
2019-06-15T18:18:40.813Z,3.50
2019-06-15T18:20:45.622Z,5.60
2019-06-15T18:22:50.753Z,3.53
2019-06-15T18:24:56.777Z,8.13
2019-06-15T18:27:06.078Z,3.47
2019-06-15T18:29:09.141Z,3.92
2019-06-15T18:31:16.175Z,3.27
2019-06-15T18:33:20.315Z,8.33
2019-06-15T18:35:26.586Z,3.30
2019-06-15T18:37:31.716Z,3.67
2019-06-15T18:39:36.937Z,6.47
2019-06-15T18:41:41.807Z,2.90
2019-06-15T18:43:46.572Z,4.90
2019-06-15T18:45:51.649Z,4.33
2019-06-15T18:47:56.959Z,6.40
2019-06-15T18:50:01.743Z,4.67
2019-06-15T18:52:06.567Z,5.67
2019-06-15T18:54:11.335Z,4.77
2019-06-15T18:56:16.427Z,4.00
2019-06-15T18:58:21.372Z,4.50
2019-06-15T19:00:26.274Z,6.53
2019-06-15T19:02:31.827Z,7.27
2019-06-15T19:04:36.645Z,4.20
2019-06-15T19:06:41.399Z,5.00
2019-06-15T19:08:46.855Z,4.70
2019-06-15T19:10:51.830Z,7.00
2019-06-15T19:12:56.770Z,5.03
2019-06-15T19:15:01.509Z,11.13
2019-06-15T19:17:06.333Z,25.47
2019-06-15T19:19:11.099Z,14.63
2019-06-15T19:21:16.925Z,11.50
2019-06-15T19:23:21.858Z,7.33
2019-06-15T19:25:27.055Z,6.13
2019-06-15T19:27:31.941Z,10.07
2019-06-15T19:29:36.721Z,5.97
2019-06-15T19:31:41.460Z,6.37
2019-06-15T19:33:46.834Z,6.10
2019-06-15T19:35:51.852Z,10.90
2019-06-15T19:37:56.905Z,6.10
2019-06-15T19:40:01.661Z,6.93
2019-06-15T19:42:06.385Z,11.57
2019-06-15T19:44:11.260Z,4.80
2019-06-15T19:46:17.051Z,7.63
2019-06-15T19:48:22.249Z,7.63
2019-06-15T19:50:27.049Z,5.03
2019-06-15T19:52:36.032Z,4.73
2019-06-15T19:54:40.958Z,5.30
2019-06-15T19:56:46.673Z,8.30
2019-06-15T19:58:51.539Z,4.90
2019-06-15T20:00:56.569Z,10.50
2019-06-15T20:03:01.438Z,8.83
2019-06-15T20:05:07.616Z,6.40
2019-06-15T20:07:12.403Z,6.53
2019-06-15T20:09:17.227Z,7.77
2019-06-15T20:11:21.967Z,10.07
2019-06-15T20:13:26.793Z,7.57
2019-06-15T20:15:31.856Z,14.10
2019-06-15T20:17:36.929Z,11.50
2019-06-15T20:19:41.770Z,8.17
2019-06-15T20:21:46.557Z,11.23
2019-06-15T20:23:51.497Z,12.03
2019-06-15T20:25:56.259Z,14.60
2019-06-15T20:28:01.499Z,12.63
2019-06-15T20:30:07.179Z,11.70
2019-06-15T20:32:12.055Z,13.60
2019-06-15T20:34:16.799Z,13.70
2019-06-15T20:36:21.646Z,17.90
2019-06-15T20:38:26.959Z,14.80
2019-06-15T20:40:31.963Z,15.70
2019-06-15T20:42:36.807Z,16.07
2019-06-15T20:44:41.529Z,16.57
2019-06-15T20:46:46.513Z,14.70
2019-06-15T20:48:51.341Z,17.83
2019-06-15T20:50:56.732Z,18.35
2019-06-15T20:53:01.732Z,16.33
2019-06-15T20:55:06.715Z,14.10
2019-06-15T20:57:11.840Z,17.63
2019-06-15T20:59:17.094Z,16.93
2019-06-15T21:01:21.866Z,17.57
2019-06-15T21:03:27.007Z,16.67
2019-06-15T21:05:37.300Z,17.23
2019-06-15T21:07:39.763Z,14.77
2019-06-15T21:09:46.785Z,16.80
2019-06-15T21:11:51.744Z,15.37
2019-06-15T21:13:56.561Z,15.23
2019-06-15T21:16:01.405Z,15.70
2019-06-15T21:18:06.772Z,16.30
2019-06-15T21:20:12.167Z,12.87
2019-06-15T21:22:16.938Z,14.43
2019-06-15T21:24:22.008Z,18.53
2019-06-15T21:26:27.094Z,17.65
2019-06-15T21:28:31.989Z,17.03
2019-06-15T21:30:37.039Z,15.93
2019-06-15T21:32:42.687Z,15.20
2019-06-15T21:34:47.456Z,20.63
2019-06-15T21:36:52.261Z,14.83
2019-06-15T21:38:57.028Z,11.77
2019-06-15T21:41:01.998Z,13.97
2019-06-15T21:43:07.189Z,13.30
2019-06-15T21:45:12.233Z,17.10
2019-06-15T21:47:17.096Z,14.50
2019-06-15T21:49:21.908Z,17.57
2019-06-15T21:51:27.032Z,13.90
2019-06-15T21:53:32.415Z,12.88
2019-06-15T21:55:37.153Z,13.73
2019-06-15T21:57:41.909Z,15.90
2019-06-15T21:59:47.339Z,14.73
2019-06-15T22:01:52.249Z,21.93
2019-06-15T22:03:57.090Z,14.63
2019-06-15T22:06:03.341Z,16.73
2019-06-15T22:08:08.318Z,13.40
2019-06-15T22:10:15.914Z,14.78
2019-06-15T22:12:20.704Z,16.33
2019-06-15T22:14:26.598Z,14.30
2019-06-15T22:16:32.136Z,17.20
2019-06-15T22:18:36.971Z,14.73
2019-06-15T22:20:41.765Z,14.43
2019-06-15T22:22:47.145Z,17.30
2019-06-15T22:24:52.003Z,18.50
2019-06-15T22:26:57.190Z,16.37
2019-06-15T22:29:02.154Z,16.47
2019-06-15T22:31:06.971Z,15.13
2019-06-15T22:33:11.837Z,16.20
2019-06-15T22:35:16.949Z,14.03
2019-06-15T22:37:21.748Z,15.68
2019-06-15T22:39:26.921Z,17.00
2019-06-15T22:41:32.158Z,19.97
2019-06-15T22:43:36.991Z,14.50
2019-06-15T22:45:41.789Z,19.53
2019-06-15T22:47:46.913Z,18.00
2019-06-15T22:49:51.839Z,20.60
2019-06-15T22:51:56.952Z,18.43
2019-06-15T22:54:01.866Z,19.47
2019-06-15T22:56:06.850Z,23.00
2019-06-15T22:58:11.681Z,17.87
2019-06-15T23:00:18.531Z,16.60
2019-06-15T23:02:25.975Z,18.63
2019-06-15T23:04:29.764Z,18.00
2019-06-15T23:06:38.729Z,17.00
2019-06-15T23:08:40.966Z,16.67
2019-06-15T23:10:47.402Z,17.70
2019-06-15T23:12:52.197Z,20.70
2019-06-15T23:14:57.030Z,18.70
2019-06-15T23:17:01.814Z,16.30
2019-06-15T23:19:07.838Z,16.87
2019-06-15T23:21:13.390Z,15.50
2019-06-15T23:23:18.826Z,18.87
2019-06-15T23:25:23.593Z,16.27
2019-06-15T23:27:28.802Z,14.23
2019-06-15T23:29:33.583Z,19.20
2019-06-15T23:31:38.603Z,18.77
2019-06-15T23:33:43.463Z,15.80
2019-06-15T23:35:56.767Z,17.27
2019-06-15T23:38:01.597Z,14.37
2019-06-15T23:40:19.774Z,15.10
2019-06-15T23:42:24.508Z,14.97
2019-06-15T23:44:29.702Z,15.43
2019-06-15T23:46:36.165Z,14.50
2019-06-15T23:48:40.970Z,13.93
2019-06-15T23:50:46.360Z,15.13
2019-06-15T23:52:51.926Z,15.20
2019-06-15T23:54:57.006Z,14.23
2019-06-15T23:57:01.833Z,14.87
2019-06-15T23:59:07.101Z,15.98
